createdAt,value
2022-12-23T00:01:32.214Z,97184.81
2022-12-23T00:04:00.423Z,97183.15
2022-12-23T00:06:28.672Z,97179.42
2022-12-23T00:08:58.836Z,97178.67
2022-12-23T00:11:28.829Z,97175.90
2022-12-23T00:14:20.991Z,97182.79
2022-12-23T00:16:51.128Z,97188.33
2022-12-23T00:19:19.710Z,97186.63
2022-12-23T00:21:48.605Z,97182.73
2022-12-23T00:24:17.453Z,97184.87
2022-12-23T00:26:45.657Z,97185.50
2022-12-23T00:29:13.695Z,97189.17
2022-12-23T00:31:41.705Z,97184.85
2022-12-23T00:34:12.444Z,97181.50
2022-12-23T00:36:40.977Z,97178.02
2022-12-23T00:39:31.589Z,97178.93
2022-12-23T00:42:18.237Z,97178.92
2022-12-23T00:44:46.310Z,97178.98
2022-12-23T00:47:34.338Z,97180.04
2022-12-23T00:50:02.351Z,97173.98
2022-12-23T00:52:30.439Z,97169.25
2022-12-23T00:54:58.483Z,97167.48
2022-12-23T00:57:27.223Z,97165.83
2022-12-23T00:59:55.255Z,97166.79
2022-12-23T01:02:45.457Z,97167.63
2022-12-23T01:05:36.711Z,97163.41
2022-12-23T01:08:10.831Z,97158.40
2022-12-23T01:10:40.988Z,97156.31
2022-12-23T01:13:09.120Z,97156.11
2022-12-23T01:15:37.192Z,97157.66
2022-12-23T01:18:05.264Z,97155.20
2022-12-23T01:20:33.240Z,97154.83
2022-12-23T01:23:01.234Z,97156.17
2022-12-23T01:25:30.503Z,97153.98
2022-12-23T01:27:58.375Z,97152.32
2022-12-23T01:30:26.445Z,97150.20
2022-12-23T01:32:54.536Z,97152.81
2022-12-23T01:35:22.427Z,97153.77
2022-12-23T01:37:50.397Z,97149.30
2022-12-23T01:40:18.581Z,97147.74
2022-12-23T01:42:47.485Z,97145.92
2022-12-23T01:45:24.954Z,97149.13
2022-12-23T01:48:10.470Z,97148.05
2022-12-23T01:50:41.575Z,97141.70
2022-12-23T01:53:28.182Z,97142.45
2022-12-23T01:56:10.614Z,97140.75
2022-12-23T01:58:43.057Z,97139.59
2022-12-23T02:01:30.606Z,97133.19
2022-12-23T02:04:02.732Z,97129.77
2022-12-23T02:06:55.457Z,97132.55
2022-12-23T02:09:23.602Z,97134.80
2022-12-23T02:12:20.623Z,97137.42
2022-12-23T02:15:26.111Z,97131.70
2022-12-23T02:18:27.592Z,97131.66
2022-12-23T02:21:19.773Z,97131.86
2022-12-23T02:24:03.202Z,97124.34
2022-12-23T02:26:54.341Z,97123.92
2022-12-23T02:30:00.478Z,97122.86
2022-12-23T02:32:44.152Z,97122.86
2022-12-23T02:35:29.277Z,97123.23
2022-12-23T02:38:20.926Z,97115.28
2022-12-23T02:41:06.805Z,97110.59
2022-12-23T02:43:37.443Z,97111.02
2022-12-23T02:46:13.938Z,97111.50
2022-12-23T02:48:54.453Z,97115.34
2022-12-23T02:51:29.490Z,97114.97
2022-12-23T02:54:03.117Z,97116.35
2022-12-23T02:56:33.487Z,97114.21
2022-12-23T02:59:27.080Z,97112.86
2022-12-23T03:01:55.689Z,97113.96
2022-12-23T03:04:23.738Z,97116.19
2022-12-23T03:06:54.170Z,97122.16
2022-12-23T03:09:36.213Z,97126.88
2022-12-23T03:12:28.482Z,97130.76
2022-12-23T03:15:02.822Z,97131.16
2022-12-23T03:17:41.517Z,97126.61
2022-12-23T03:20:20.781Z,97127.22
2022-12-23T03:22:52.860Z,97122.83
2022-12-23T03:25:27.566Z,97122.70
2022-12-23T03:28:18.782Z,97121.25
2022-12-23T03:30:53.243Z,97113.84
2022-12-23T03:33:29.189Z,97102.68
2022-12-23T03:36:03.496Z,97099.15
2022-12-23T03:38:35.753Z,97106.14
2022-12-23T03:41:09.971Z,97115.80
2022-12-23T03:43:51.071Z,97116.58
2022-12-23T03:46:28.013Z,97120.95
2022-12-23T03:49:03.879Z,97119.12
2022-12-23T03:51:43.949Z,97117.93
2022-12-23T03:54:17.125Z,97119.66
2022-12-23T03:56:57.532Z,97118.14
2022-12-23T03:59:29.728Z,97120.23
2022-12-23T04:02:04.536Z,97122.45
2022-12-23T04:05:10.759Z,97121.95
2022-12-23T04:07:43.676Z,97115.48
2022-12-23T04:10:12.991Z,97113.52
2022-12-23T04:12:41.322Z,97112.13
2022-12-23T04:15:13.117Z,97105.95
2022-12-23T04:17:41.779Z,97114.52
2022-12-23T04:20:10.866Z,97122.13
2022-12-23T04:22:39.654Z,97125.33
2022-12-23T04:25:08.338Z,97129.52
2022-12-23T04:27:36.818Z,97126.11
2022-12-23T04:30:06.992Z,97126.34
2022-12-23T04:32:35.110Z,97125.35
2022-12-23T04:35:03.422Z,97129.20
2022-12-23T04:37:31.627Z,97131.02
2022-12-23T04:39:59.629Z,97133.09
2022-12-23T04:42:27.698Z,97135.98
2022-12-23T04:44:55.788Z,97132.34
2022-12-23T04:47:23.845Z,97129.82
2022-12-23T04:49:51.822Z,97124.57
2022-12-23T04:52:19.894Z,97125.81
2022-12-23T04:54:47.901Z,97127.91
2022-12-23T04:57:16.319Z,97133.73
2022-12-23T04:59:44.313Z,97139.98
2022-12-23T05:02:12.868Z,97135.96
2022-12-23T05:04:41.579Z,97130.65
2022-12-23T05:07:09.802Z,97125.88
2022-12-23T05:09:37.835Z,97124.45
2022-12-23T05:12:05.889Z,97121.67
2022-12-23T05:14:33.831Z,97120.06
2022-12-23T05:17:07.073Z,97125.13
2022-12-23T05:19:35.696Z,97128.64
2022-12-23T05:22:03.838Z,97132.29
2022-12-23T05:24:32.107Z,97127.93
2022-12-23T05:27:00.643Z,97124.84
2022-12-23T05:29:28.767Z,97127.73
2022-12-23T05:31:57.389Z,97127.15
2022-12-23T05:34:25.520Z,97123.58
2022-12-23T05:36:53.488Z,97125.45
2022-12-23T05:39:21.764Z,97125.19
2022-12-23T05:41:49.811Z,97128.38
2022-12-23T05:44:17.821Z,97130.40
2022-12-23T05:46:45.737Z,97126.30
2022-12-23T05:49:13.671Z,97119.59
2022-12-23T05:51:42.009Z,97120.71
2022-12-23T05:54:09.971Z,97129.98
2022-12-23T05:56:38.150Z,97135.36
2022-12-23T05:59:06.384Z,97137.75
2022-12-23T06:01:34.555Z,97141.52
2022-12-23T06:04:03.201Z,97145.37
2022-12-23T06:06:31.349Z,97148.55
2022-12-23T06:08:59.968Z,97147.09
2022-12-23T06:11:28.796Z,97150.10
2022-12-23T06:13:57.075Z,97152.16
2022-12-23T06:16:25.132Z,97150.25
2022-12-23T06:18:56.587Z,97150.95
2022-12-23T06:21:28.045Z,97150.38
2022-12-23T06:23:55.904Z,97152.67
2022-12-23T06:26:24.034Z,97143.91
2022-12-23T06:28:52.555Z,97135.23
2022-12-23T06:31:20.559Z,97133.87
2022-12-23T06:33:48.720Z,97130.38
2022-12-23T06:36:16.892Z,97124.68
2022-12-23T06:38:44.843Z,97122.40
2022-12-23T06:41:13.658Z,97119.59
2022-12-23T06:43:41.704Z,97119.88
2022-12-23T06:46:09.843Z,97124.73
2022-12-23T06:48:37.968Z,97129.55
2022-12-23T06:51:06.136Z,97142.25
2022-12-23T06:53:34.199Z,97146.95
2022-12-23T06:56:03.695Z,97155.51
2022-12-23T06:58:31.770Z,97149.39
2022-12-23T07:00:59.957Z,97149.29
2022-12-23T07:03:28.491Z,97147.01
2022-12-23T07:05:56.539Z,97150.66
2022-12-23T07:08:24.538Z,97152.59
2022-12-23T07:10:58.737Z,97153.34
2022-12-23T07:13:27.531Z,97152.19
2022-12-23T07:15:55.629Z,97150.86
2022-12-23T07:18:23.771Z,97149.91
2022-12-23T07:20:52.661Z,97149.36
2022-12-23T07:23:20.674Z,97136.59
2022-12-23T07:25:48.713Z,97124.95
2022-12-23T07:28:16.735Z,97115.55
2022-12-23T07:30:44.627Z,97117.55
2022-12-23T07:33:12.953Z,97124.95
2022-12-23T07:35:42.566Z,97132.83
2022-12-23T07:38:10.796Z,97137.52
2022-12-23T07:40:38.995Z,97128.05
2022-12-23T07:43:06.906Z,97125.58
2022-12-23T07:45:35.032Z,97126.14
2022-12-23T07:48:03.218Z,97132.36
2022-12-23T07:50:31.170Z,97137.58
2022-12-23T07:52:59.350Z,97138.35
2022-12-23T07:55:27.518Z,97136.83
2022-12-23T07:57:55.482Z,97136.50
2022-12-23T08:00:23.680Z,97141.83
2022-12-23T08:02:51.857Z,97145.59
2022-12-23T08:05:20.103Z,97148.28
2022-12-23T08:07:50.183Z,97144.11
2022-12-23T08:10:18.203Z,97142.96
2022-12-23T08:12:46.781Z,97142.91
2022-12-23T08:15:14.787Z,97141.34
2022-12-23T08:17:43.397Z,97146.05
2022-12-23T08:20:12.063Z,97145.52
2022-12-23T08:22:40.096Z,97148.65
2022-12-23T08:25:08.534Z,97147.77
2022-12-23T08:27:36.651Z,97149.86
2022-12-23T08:30:05.208Z,97151.39
2022-12-23T08:32:33.242Z,97153.18
2022-12-23T08:35:01.483Z,97157.95
2022-12-23T08:37:29.759Z,97157.96
2022-12-23T08:39:57.829Z,97156.64
2022-12-23T08:42:25.907Z,97158.74
2022-12-23T08:44:53.878Z,97154.98
2022-12-23T08:47:21.966Z,97146.69
2022-12-23T08:49:49.949Z,97146.80
2022-12-23T08:52:17.947Z,97148.98
2022-12-23T08:54:45.964Z,97142.33
2022-12-23T08:57:14.334Z,97134.40
2022-12-23T08:59:42.348Z,97132.67
2022-12-23T09:02:12.186Z,97124.93
2022-12-23T09:04:40.393Z,97123.73
2022-12-23T09:07:08.384Z,97123.59
2022-12-23T09:09:38.076Z,97124.27
2022-12-23T09:12:06.467Z,97125.39
2022-12-23T09:15:00.452Z,97126.80
2022-12-23T09:17:28.724Z,97132.80
2022-12-23T09:19:56.898Z,97129.02
2022-12-23T09:22:24.991Z,97128.25
2022-12-23T09:24:53.281Z,97125.77
2022-12-23T09:27:21.446Z,97122.83
2022-12-23T09:29:49.357Z,97123.22
2022-12-23T09:32:17.666Z,97124.02
2022-12-23T09:34:45.729Z,97121.04
2022-12-23T09:37:16.907Z,97118.55
2022-12-23T09:39:44.965Z,97114.49
2022-12-23T09:42:25.210Z,97113.35
2022-12-23T09:45:40.156Z,97114.02
2022-12-23T09:48:17.580Z,97103.77
2022-12-23T09:50:46.749Z,97096.40
2022-12-23T09:53:22.617Z,97096.95
2022-12-23T09:56:02.664Z,97101.11
2022-12-23T09:58:46.716Z,97100.42
2022-12-23T10:01:59.609Z,97100.23
2022-12-23T10:04:38.021Z,97098.90
2022-12-23T10:07:11.794Z,97100.26
2022-12-23T10:09:44.147Z,97096.23
2022-12-23T10:12:40.428Z,97090.48
2022-12-23T10:15:47.805Z,97088.48
2022-12-23T10:18:42.546Z,97088.11
2022-12-23T10:21:24.855Z,97087.23
2022-12-23T10:23:55.991Z,97085.55
2022-12-23T10:26:57.342Z,97086.39
2022-12-23T10:29:30.139Z,97087.28
2022-12-23T10:32:32.584Z,97085.55
2022-12-23T10:35:41.127Z,97085.17
2022-12-23T10:38:26.809Z,97083.85
2022-12-23T10:41:09.536Z,97086.08
2022-12-23T10:44:05.047Z,97088.67
2022-12-23T10:47:22.578Z,97089.01
2022-12-23T10:50:21.265Z,97086.27
2022-12-23T10:52:53.840Z,97081.47
2022-12-23T10:55:34.142Z,97077.69
2022-12-23T10:58:27.362Z,97078.19
2022-12-23T11:00:59.808Z,97077.41
2022-12-23T11:03:32.508Z,97071.95
2022-12-23T11:15:58.337Z,97073.02
2022-12-23T11:18:26.578Z,97069.23
2022-12-23T11:30:05.676Z,97074.84
2022-12-23T11:32:38.563Z,97067.85
2022-12-23T11:35:30.677Z,97068.98
2022-12-23T11:38:01.224Z,97064.64
2022-12-23T11:40:36.740Z,97066.29
2022-12-23T11:43:12.447Z,97067.89
2022-12-23T11:45:41.289Z,97070.20
2022-12-23T11:48:28.546Z,97068.49
2022-12-23T11:51:01.880Z,97060.60
2022-12-23T11:53:30.446Z,97055.83
2022-12-23T11:56:07.335Z,97049.31
2022-12-23T11:59:02.847Z,97045.81
2022-12-23T12:01:31.801Z,97052.30
2022-12-23T12:04:07.641Z,97048.27
2022-12-23T12:06:43.677Z,97043.61
2022-12-23T12:09:13.855Z,97040.65
2022-12-23T12:11:53.019Z,97045.36
2022-12-23T12:14:34.049Z,97056.56
2022-12-23T12:17:05.565Z,97063.23
2022-12-23T12:19:39.933Z,97064.58
2022-12-23T12:22:15.074Z,97064.78
2022-12-23T12:24:50.760Z,97078.88
2022-12-23T12:27:28.339Z,97083.23
2022-12-23T12:30:04.547Z,97081.10
2022-12-23T12:32:56.258Z,97077.40
2022-12-23T12:35:45.799Z,97084.96
2022-12-23T12:38:30.542Z,97088.46
2022-12-23T12:41:06.808Z,97094.22
2022-12-23T12:43:47.289Z,97094.82
2022-12-23T12:46:41.240Z,97091.25
2022-12-23T12:49:20.603Z,97088.85
2022-12-23T12:51:58.378Z,97089.51
2022-12-23T12:54:39.944Z,97084.32
2022-12-23T12:57:15.600Z,97084.35
2022-12-23T12:59:45.495Z,97078.93
2022-12-23T13:02:42.112Z,97078.92
2022-12-23T13:05:24.080Z,97084.45
2022-12-23T13:08:16.749Z,97086.38
2022-12-23T13:10:49.605Z,97081.88
2022-12-23T13:13:55.180Z,97073.98
2022-12-23T13:16:29.270Z,97068.22
2022-12-23T13:19:06.628Z,97068.80
2022-12-23T13:21:48.116Z,97071.67
2022-12-23T13:24:48.628Z,97074.11
2022-12-23T13:27:44.620Z,97071.33
2022-12-23T13:30:21.623Z,97080.80
2022-12-23T13:33:16.711Z,97080.77
2022-12-23T13:36:06.019Z,97078.94
2022-12-23T13:39:06.941Z,97076.02
2022-12-23T13:41:53.623Z,97077.88
2022-12-23T13:44:22.755Z,97081.11
2022-12-23T13:46:59.828Z,97081.60
2022-12-23T13:49:58.533Z,97085.73
2022-12-23T13:52:29.597Z,97084.18
2022-12-23T13:55:16.109Z,97082.50
2022-12-23T13:58:02.987Z,97082.13
2022-12-23T14:00:33.316Z,97084.44
2022-12-23T14:03:01.536Z,97084.88
2022-12-23T14:05:39.016Z,97087.04
2022-12-23T14:08:19.332Z,97090.81
2022-12-23T14:10:59.184Z,97087.84
2022-12-23T14:13:36.698Z,97090.73
2022-12-23T14:16:22.686Z,97093.06
2022-12-23T14:18:53.704Z,97094.52
2022-12-23T14:21:21.666Z,97093.80
2022-12-23T14:24:27.032Z,97093.36
2022-12-23T14:27:27.309Z,97089.84
2022-12-23T14:30:23.798Z,97086.00
2022-12-23T14:33:00.572Z,97085.72
2022-12-23T14:35:35.455Z,97082.94
2022-12-23T14:38:08.156Z,97081.29
2022-12-23T14:40:38.939Z,97077.60
2022-12-23T14:43:22.344Z,97078.00
2022-12-23T14:45:56.111Z,97074.95
2022-12-23T14:48:34.578Z,97077.98
2022-12-23T14:51:09.062Z,97078.58
2022-12-23T14:53:57.995Z,97080.81
2022-12-23T14:56:26.510Z,97073.44
2022-12-23T14:59:09.932Z,97066.12
2022-12-23T15:01:42.599Z,97059.89
2022-12-23T15:04:13.300Z,97057.86
2022-12-23T15:07:06.740Z,97060.80
2022-12-23T15:09:55.660Z,97061.21
2022-12-23T15:12:42.213Z,97058.93
2022-12-23T15:15:25.319Z,97062.23
2022-12-23T15:18:06.003Z,97072.52
2022-12-23T15:20:35.381Z,97080.10
2022-12-23T15:23:10.174Z,97085.09
2022-12-23T15:25:46.284Z,97081.46
2022-12-23T15:28:21.893Z,97083.68
2022-12-23T15:30:54.344Z,97087.10
2022-12-23T15:36:35.766Z,97076.96
2022-12-23T15:39:10.634Z,97065.20
2022-12-23T15:41:46.247Z,97056.30
2022-12-23T15:44:21.378Z,97055.15
2022-12-23T15:46:50.816Z,97050.09
2022-12-23T15:49:22.430Z,97043.57
2022-12-23T15:52:08.530Z,97044.77
2022-12-23T15:54:46.662Z,97054.64
2022-12-23T15:57:20.858Z,97055.81
2022-12-23T15:59:49.241Z,97047.08
2022-12-23T16:02:59.727Z,97047.61
2022-12-23T16:05:36.115Z,97051.11
2022-12-23T16:28:40.693Z,97027.61
2022-12-23T16:31:11.034Z,97023.52
2022-12-23T16:33:52.115Z,97024.25
2022-12-23T16:36:27.453Z,97022.16
2022-12-23T16:39:24.050Z,97025.41
2022-12-23T16:41:52.257Z,97022.37
2022-12-23T16:44:21.670Z,97019.54
2022-12-23T16:46:51.472Z,97021.89
2022-12-23T16:49:24.438Z,97028.17
2022-12-23T16:51:58.614Z,97029.13
2022-12-23T16:54:26.746Z,97033.21
2022-12-23T16:56:54.781Z,97029.54
2022-12-23T16:59:25.054Z,97028.20
2022-12-23T17:01:56.558Z,97020.11
2022-12-23T17:04:28.562Z,97016.42
2022-12-23T17:06:56.832Z,97013.88
2022-12-23T17:09:25.754Z,97007.27
2022-12-23T17:11:54.430Z,97008.62
2022-12-23T17:14:25.149Z,97011.19
2022-12-23T17:16:53.855Z,97008.41
2022-12-23T17:19:28.704Z,97002.14
2022-12-23T17:22:04.509Z,97006.27
2022-12-23T17:24:32.742Z,97007.56
2022-12-23T17:27:02.066Z,97009.53
2022-12-23T17:29:30.713Z,97009.00
2022-12-23T17:31:59.103Z,97012.46
2022-12-23T17:34:27.433Z,97015.44
2022-12-23T17:36:55.801Z,97008.90
2022-12-23T17:39:24.194Z,97013.70
2022-12-23T17:41:52.572Z,97018.61
2022-12-23T17:44:21.277Z,97017.81
2022-12-23T17:46:49.900Z,97022.17
2022-12-23T17:49:18.222Z,97016.52
2022-12-23T17:51:47.581Z,97018.55
2022-12-23T17:54:24.897Z,97022.21
2022-12-23T17:56:53.272Z,97018.33
2022-12-23T17:59:22.691Z,97030.65
2022-12-23T18:01:51.831Z,97026.11
2022-12-23T18:04:22.013Z,97022.60
2022-12-23T18:06:50.154Z,97020.61
2022-12-23T18:09:19.594Z,97017.31
2022-12-23T18:11:48.872Z,97013.91
2022-12-23T18:14:24.028Z,97009.21
2022-12-23T18:16:52.273Z,97012.09
2022-12-23T18:19:21.708Z,97013.17
2022-12-23T18:21:51.552Z,97009.27
2022-12-23T18:24:20.392Z,97009.27
2022-12-23T18:26:50.131Z,97010.06
2022-12-23T18:29:19.428Z,97010.02
2022-12-23T18:31:52.075Z,97011.09
2022-12-23T18:34:22.231Z,97005.90
2022-12-23T18:36:52.239Z,96999.23
2022-12-23T18:39:21.386Z,96992.57
2022-12-23T18:41:49.828Z,96982.27
2022-12-23T18:44:20.773Z,96974.38
2022-12-23T18:46:50.532Z,96973.19
2022-12-23T18:49:19.412Z,96970.20
2022-12-23T19:06:23.483Z,96985.42
2022-12-23T19:08:51.351Z,97001.13
2022-12-23T19:11:20.833Z,97004.71
2022-12-23T19:13:48.696Z,97002.58
2022-12-23T19:16:19.863Z,97006.73
2022-12-23T19:18:49.580Z,97009.77
2022-12-23T19:21:18.618Z,97005.88
2022-12-23T19:23:46.642Z,97003.10
2022-12-23T19:26:15.436Z,96999.73
2022-12-23T19:28:43.663Z,96993.45
2022-12-23T19:31:14.428Z,96992.59
2022-12-23T19:33:45.189Z,96992.02
2022-12-23T19:36:16.510Z,96990.05
2022-12-23T19:38:44.625Z,96985.55
2022-12-23T19:41:12.585Z,96986.60
2022-12-23T19:43:44.800Z,96985.27
2022-12-23T19:46:14.922Z,96984.46
2022-12-23T19:48:43.647Z,96981.52
2022-12-23T19:51:13.902Z,96986.52
2022-12-23T19:53:42.488Z,96982.91
2022-12-23T19:56:15.849Z,96981.94
2022-12-23T19:58:44.329Z,96982.31
2022-12-23T20:01:13.711Z,96984.55
2022-12-23T20:03:42.029Z,96989.14
2022-12-23T20:06:22.470Z,96988.66
2022-12-23T20:08:54.937Z,96971.75
2022-12-23T20:11:26.319Z,96975.76
2022-12-23T20:13:55.497Z,96982.64
2022-12-23T20:16:23.705Z,96981.28
2022-12-23T20:18:51.922Z,96980.80
2022-12-23T20:21:20.731Z,96985.12
2022-12-23T20:23:49.327Z,96989.42
2022-12-23T20:26:18.707Z,96985.85
2022-12-23T20:28:46.997Z,96982.70
2022-12-23T20:31:21.043Z,96984.13
2022-12-23T20:33:50.721Z,96984.60
2022-12-23T20:36:23.188Z,96986.21
2022-12-23T20:38:52.527Z,96986.59
2022-12-23T20:41:21.609Z,96987.80
2022-12-23T20:44:23.335Z,96989.05
2022-12-23T20:46:37.715Z,96992.41
2022-12-23T20:49:05.771Z,96997.94
2022-12-23T20:51:35.183Z,97004.40
2022-12-23T20:54:03.266Z,97001.35
2022-12-23T20:56:31.877Z,97008.23
2022-12-23T20:59:01.619Z,97007.05
2022-12-23T21:01:38.701Z,97006.09
2022-12-23T21:04:14.151Z,97007.37
2022-12-23T21:06:42.661Z,97005.97
2022-12-23T21:09:12.576Z,97011.46
2022-12-23T21:11:43.306Z,97017.77
2022-12-23T21:14:12.722Z,97016.86
2022-12-23T21:16:41.812Z,97016.65
2022-12-23T21:19:16.434Z,97018.30
2022-12-23T21:21:45.204Z,97022.95
2022-12-23T21:24:14.095Z,97020.98
2022-12-23T21:26:42.555Z,97020.63
2022-12-23T21:29:11.640Z,97021.48
2022-12-23T21:31:41.133Z,97020.93
2022-12-23T21:34:10.888Z,97020.14
2022-12-23T21:36:39.452Z,97019.95
2022-12-23T21:39:08.875Z,97022.94
2022-12-23T21:41:38.008Z,97019.73
2022-12-23T21:44:06.233Z,97012.40
2022-12-23T21:46:34.484Z,97010.21
2022-12-23T21:49:02.823Z,97010.10
2022-12-23T21:51:39.553Z,97006.95
2022-12-23T21:54:10.633Z,97010.68
2022-12-23T21:56:40.690Z,97006.52
2022-12-23T21:59:12.760Z,97003.95
2022-12-23T22:01:42.196Z,97005.88
2022-12-23T22:04:10.522Z,96997.96
2022-12-23T22:06:43.443Z,96995.41
2022-12-23T22:09:15.987Z,96987.92
2022-12-23T22:11:44.550Z,96985.77
2022-12-23T22:14:16.042Z,96980.58
2022-12-23T22:16:44.154Z,96983.52
2022-12-23T22:19:12.547Z,96983.63
2022-12-23T22:21:42.457Z,96983.73
2022-12-23T22:24:11.184Z,96986.59
2022-12-23T22:26:39.529Z,96989.95
2022-12-23T22:29:08.119Z,96987.39
2022-12-23T22:31:44.786Z,96983.21
2022-12-23T22:34:16.699Z,96979.63
2022-12-23T22:36:45.708Z,96979.75
2022-12-23T22:39:19.988Z,96974.65
2022-12-23T22:41:52.951Z,96975.34
2022-12-23T22:44:21.785Z,96978.73
2022-12-23T22:46:50.113Z,96968.75
2022-12-23T22:49:18.910Z,96970.45
2022-12-23T22:51:46.870Z,96971.69
2022-12-23T22:54:14.919Z,96962.58
2022-12-23T22:56:44.247Z,96958.81
2022-12-23T22:59:19.322Z,96949.87
2022-12-23T23:01:47.992Z,96946.67
2022-12-23T23:04:16.038Z,96943.10
2022-12-23T23:06:44.115Z,96944.80
2022-12-23T23:09:14.967Z,96950.25
2022-12-23T23:11:44.477Z,96944.73
2022-12-23T23:14:13.342Z,96946.52
2022-12-23T23:16:41.957Z,96944.05
2022-12-23T23:19:10.731Z,96946.17
2022-12-23T23:21:38.686Z,96952.41
2022-12-23T23:24:07.251Z,96954.82
2022-12-23T23:26:35.348Z,96951.91
2022-12-23T23:29:03.320Z,96949.02
2022-12-23T23:31:41.705Z,96947.09
2022-12-23T23:34:10.819Z,96946.86
2022-12-23T23:36:39.142Z,96941.77
2022-12-23T23:39:07.475Z,96947.98
2022-12-23T23:41:35.863Z,96951.40
2022-12-23T23:44:04.182Z,96956.79
2022-12-23T23:46:33.332Z,96957.48
2022-12-23T23:49:01.503Z,96949.95
2022-12-23T23:51:29.886Z,96948.61
2022-12-23T23:53:57.822Z,96953.20
2022-12-23T23:56:27.935Z,96956.30
2022-12-23T23:58:57.987Z,96959.46
